sensor_id;sensor_type;location;lat;lon;timestamp;temperature;humidity
7512;DHT22;9999;48.780;9.146;2024-03-08T00:02:19;3.30;99.90
7512;DHT22;9999;48.780;9.146;2024-03-08T00:04:46;3.30;99.90
7512;DHT22;9999;48.780;9.146;2024-03-08T00:07:13;3.30;99.90
7512;DHT22;9999;48.780;9.146;2024-03-08T00:09:41;3.20;99.90
7512;DHT22;9999;48.780;9.146;2024-03-08T00:12:08;3.30;99.90
7512;DHT22;9999;48.780;9.146;2024-03-08T00:14:35;3.30;99.90
7512;DHT22;9999;48.780;9.146;2024-03-08T00:17:04;3.20;99.90
7512;DHT22;9999;48.780;9.146;2024-03-08T00:19:31;3.20;99.90
7512;DHT22;9999;48.780;9.146;2024-03-08T00:21:58;3.10;99.90
7512;DHT22;9999;48.780;9.146;2024-03-08T00:24:24;3.10;99.90
7512;DHT22;9999;48.780;9.146;2024-03-08T00:26:53;3.10;99.90
7512;DHT22;9999;48.780;9.146;2024-03-08T00:29:20;3.00;99.90
7512;DHT22;9999;48.780;9.146;2024-03-08T00:31:47;3.00;99.90
7512;DHT22;9999;48.780;9.146;2024-03-08T00:34:14;3.00;99.90
7512;DHT22;9999;48.780;9.146;2024-03-08T00:36:41;3.00;99.90
7512;DHT22;9999;48.780;9.146;2024-03-08T00:39:08;2.90;99.90
7512;DHT22;9999;48.780;9.146;2024-03-08T00:41:35;2.90;99.90
7512;DHT22;9999;48.780;9.146;2024-03-08T00:44:03;2.90;99.90
7512;DHT22;9999;48.780;9.146;2024-03-08T00:46:30;3.00;99.90
7512;DHT22;9999;48.780;9.146;2024-03-08T00:48:57;3.00;99.90
7512;DHT22;9999;48.780;9.146;2024-03-08T00:51:24;2.90;99.90
7512;DHT22;9999;48.780;9.146;2024-03-08T00:53:51;2.80;99.90
7512;DHT22;9999;48.780;9.146;2024-03-08T00:56:18;2.70;99.90
7512;DHT22;9999;48.780;9.146;2024-03-08T00:58:45;2.80;99.90
7512;DHT22;9999;48.780;9.146;2024-03-08T01:01:13;2.70;99.90
7512;DHT22;9999;48.780;9.146;2024-03-08T01:03:43;2.70;99.90
7512;DHT22;9999;48.780;9.146;2024-03-08T01:06:09;2.70;99.90
7512;DHT22;9999;48.780;9.146;2024-03-08T01:08:37;2.60;99.90
7512;DHT22;9999;48.780;9.146;2024-03-08T01:11:03;2.60;99.90
7512;DHT22;9999;48.780;9.146;2024-03-08T01:13:30;2.60;99.90
7512;DHT22;9999;48.780;9.146;2024-03-08T01:15:57;2.60;99.90
7512;DHT22;9999;48.780;9.146;2024-03-08T01:18:25;2.50;99.90
7512;DHT22;9999;48.780;9.146;2024-03-08T01:20:52;2.50;99.90
7512;DHT22;9999;48.780;9.146;2024-03-08T01:23:18;2.50;99.90
7512;DHT22;9999;48.780;9.146;2024-03-08T01:25:46;2.50;99.90
7512;DHT22;9999;48.780;9.146;2024-03-08T01:28:17;2.50;99.90
7512;DHT22;9999;48.780;9.146;2024-03-08T01:30:44;2.60;99.90
7512;DHT22;9999;48.780;9.146;2024-03-08T01:33:12;2.50;99.90
7512;DHT22;9999;48.780;9.146;2024-03-08T01:35:40;2.50;99.90
7512;DHT22;9999;48.780;9.146;2024-03-08T01:38:07;2.40;99.90
7512;DHT22;9999;48.780;9.146;2024-03-08T01:40:34;2.40;99.90
7512;DHT22;9999;48.780;9.146;2024-03-08T01:43:20;2.40;99.90
7512;DHT22;9999;48.780;9.146;2024-03-08T01:45:47;2.40;99.90
7512;DHT22;9999;48.780;9.146;2024-03-08T01:48:15;2.50;99.90
7512;DHT22;9999;48.780;9.146;2024-03-08T01:50:44;2.40;99.90
7512;DHT22;9999;48.780;9.146;2024-03-08T01:53:11;2.30;99.90
7512;DHT22;9999;48.780;9.146;2024-03-08T01:55:41;2.30;99.90
7512;DHT22;9999;48.780;9.146;2024-03-08T01:58:10;2.20;99.90
7512;DHT22;9999;48.780;9.146;2024-03-08T02:00:38;2.10;99.90
7512;DHT22;9999;48.780;9.146;2024-03-08T02:03:06;2.10;99.90
7512;DHT22;9999;48.780;9.146;2024-03-08T02:05:34;2.20;99.90
7512;DHT22;9999;48.780;9.146;2024-03-08T02:08:02;2.30;99.90
7512;DHT22;9999;48.780;9.146;2024-03-08T02:10:29;2.30;99.90
7512;DHT22;9999;48.780;9.146;2024-03-08T02:12:56;2.30;99.90
7512;DHT22;9999;48.780;9.146;2024-03-08T02:15:23;2.20;99.90
7512;DHT22;9999;48.780;9.146;2024-03-08T02:17:51;2.10;99.90
7512;DHT22;9999;48.780;9.146;2024-03-08T02:20:18;2.10;99.90
7512;DHT22;9999;48.780;9.146;2024-03-08T02:22:47;2.00;99.90
7512;DHT22;9999;48.780;9.146;2024-03-08T02:25:16;2.00;99.90
7512;DHT22;9999;48.780;9.146;2024-03-08T02:27:44;2.00;99.90
7512;DHT22;9999;48.780;9.146;2024-03-08T02:30:12;1.90;99.90
7512;DHT22;9999;48.780;9.146;2024-03-08T02:32:39;1.80;99.90
7512;DHT22;9999;48.780;9.146;2024-03-08T02:35:06;1.80;99.90
7512;DHT22;9999;48.780;9.146;2024-03-08T02:37:33;1.90;99.90
7512;DHT22;9999;48.780;9.146;2024-03-08T02:40:01;1.80;99.90
7512;DHT22;9999;48.780;9.146;2024-03-08T02:42:27;1.90;99.90
7512;DHT22;9999;48.780;9.146;2024-03-08T02:44:54;1.80;99.90
7512;DHT22;9999;48.780;9.146;2024-03-08T02:47:21;1.80;99.90
7512;DHT22;9999;48.780;9.146;2024-03-08T02:49:48;1.80;99.90
7512;DHT22;9999;48.780;9.146;2024-03-08T02:52:15;1.80;99.90
7512;DHT22;9999;48.780;9.146;2024-03-08T02:54:42;1.80;99.90
7512;DHT22;9999;48.780;9.146;2024-03-08T02:57:10;1.70;99.90
7512;DHT22;9999;48.780;9.146;2024-03-08T02:59:37;1.80;99.90
7512;DHT22;9999;48.780;9.146;2024-03-08T03:02:05;1.70;99.90
7512;DHT22;9999;48.780;9.146;2024-03-08T03:04:33;1.70;99.90
7512;DHT22;9999;48.780;9.146;2024-03-08T03:07:00;1.80;99.90
7512;DHT22;9999;48.780;9.146;2024-03-08T03:09:27;1.60;99.90
7512;DHT22;9999;48.780;9.146;2024-03-08T03:11:55;1.70;99.90
7512;DHT22;9999;48.780;9.146;2024-03-08T03:14:26;1.60;99.90
7512;DHT22;9999;48.780;9.146;2024-03-08T03:16:53;1.60;99.90
7512;DHT22;9999;48.780;9.146;2024-03-08T03:19:20;1.60;99.90
7512;DHT22;9999;48.780;9.146;2024-03-08T03:21:46;1.70;99.90
7512;DHT22;9999;48.780;9.146;2024-03-08T03:24:13;1.70;99.90
7512;DHT22;9999;48.780;9.146;2024-03-08T03:26:41;1.60;99.90
7512;DHT22;9999;48.780;9.146;2024-03-08T03:29:09;1.60;99.90
7512;DHT22;9999;48.780;9.146;2024-03-08T03:31:38;1.60;99.90
7512;DHT22;9999;48.780;9.146;2024-03-08T03:34:05;1.60;99.90
7512;DHT22;9999;48.780;9.146;2024-03-08T03:36:34;1.60;99.90
7512;DHT22;9999;48.780;9.146;2024-03-08T03:39:03;1.60;99.90
7512;DHT22;9999;48.780;9.146;2024-03-08T03:41:36;1.70;99.90
7512;DHT22;9999;48.780;9.146;2024-03-08T03:44:04;1.60;99.90
7512;DHT22;9999;48.780;9.146;2024-03-08T03:46:32;1.60;99.90
7512;DHT22;9999;48.780;9.146;2024-03-08T03:49:00;1.60;99.90
7512;DHT22;9999;48.780;9.146;2024-03-08T03:51:27;1.60;99.90
7512;DHT22;9999;48.780;9.146;2024-03-08T03:53:54;1.60;99.90
7512;DHT22;9999;48.780;9.146;2024-03-08T03:56:25;1.60;99.90
7512;DHT22;9999;48.780;9.146;2024-03-08T03:58:52;1.70;99.90
7512;DHT22;9999;48.780;9.146;2024-03-08T04:01:18;1.60;99.90
7512;DHT22;9999;48.780;9.146;2024-03-08T04:03:46;1.60;99.90
7512;DHT22;9999;48.780;9.146;2024-03-08T04:06:14;1.50;99.90
7512;DHT22;9999;48.780;9.146;2024-03-08T04:08:41;1.60;99.90
7512;DHT22;9999;48.780;9.146;2024-03-08T04:11:08;1.60;99.90
7512;DHT22;9999;48.780;9.146;2024-03-08T04:13:35;1.60;99.90
7512;DHT22;9999;48.780;9.146;2024-03-08T04:16:02;1.60;99.90
7512;DHT22;9999;48.780;9.146;2024-03-08T04:18:31;1.60;99.90
7512;DHT22;9999;48.780;9.146;2024-03-08T04:20:58;1.60;99.90
7512;DHT22;9999;48.780;9.146;2024-03-08T04:23:26;1.60;99.90
7512;DHT22;9999;48.780;9.146;2024-03-08T04:25:54;1.50;99.90
7512;DHT22;9999;48.780;9.146;2024-03-08T04:28:20;1.50;99.90
7512;DHT22;9999;48.780;9.146;2024-03-08T04:30:47;1.50;99.90
7512;DHT22;9999;48.780;9.146;2024-03-08T04:33:14;1.50;99.90
7512;DHT22;9999;48.780;9.146;2024-03-08T04:35:42;1.50;99.90
7512;DHT22;9999;48.780;9.146;2024-03-08T04:38:11;1.50;99.90
7512;DHT22;9999;48.780;9.146;2024-03-08T04:40:39;1.40;99.90
7512;DHT22;9999;48.780;9.146;2024-03-08T04:43:06;1.50;99.90
7512;DHT22;9999;48.780;9.146;2024-03-08T04:45:34;1.50;99.90
7512;DHT22;9999;48.780;9.146;2024-03-08T04:48:00;1.50;99.90
7512;DHT22;9999;48.780;9.146;2024-03-08T04:50:27;1.40;99.90
7512;DHT22;9999;48.780;9.146;2024-03-08T04:52:54;1.50;99.90
7512;DHT22;9999;48.780;9.146;2024-03-08T04:55:21;1.50;99.90
7512;DHT22;9999;48.780;9.146;2024-03-08T04:57:49;1.50;99.90
7512;DHT22;9999;48.780;9.146;2024-03-08T05:00:17;1.50;99.90
7512;DHT22;9999;48.780;9.146;2024-03-08T05:02:44;1.50;99.90
7512;DHT22;9999;48.780;9.146;2024-03-08T05:05:11;1.40;99.90
7512;DHT22;9999;48.780;9.146;2024-03-08T05:07:38;1.50;99.90
7512;DHT22;9999;48.780;9.146;2024-03-08T05:10:06;1.50;99.90
7512;DHT22;9999;48.780;9.146;2024-03-08T05:12:33;1.40;99.90
7512;DHT22;9999;48.780;9.146;2024-03-08T05:15:01;1.40;99.90
7512;DHT22;9999;48.780;9.146;2024-03-08T05:17:28;1.40;99.90
7512;DHT22;9999;48.780;9.146;2024-03-08T05:19:55;1.40;99.90
7512;DHT22;9999;48.780;9.146;2024-03-08T05:22:22;1.40;99.90
7512;DHT22;9999;48.780;9.146;2024-03-08T05:24:49;1.40;99.90
7512;DHT22;9999;48.780;9.146;2024-03-08T05:27:16;1.40;99.90
7512;DHT22;9999;48.780;9.146;2024-03-08T05:29:43;1.40;99.90
7512;DHT22;9999;48.780;9.146;2024-03-08T05:32:11;1.30;99.90
7512;DHT22;9999;48.780;9.146;2024-03-08T05:34:38;1.30;99.90
7512;DHT22;9999;48.780;9.146;2024-03-08T05:37:04;1.30;99.90
7512;DHT22;9999;48.780;9.146;2024-03-08T05:39:32;1.30;99.90
7512;DHT22;9999;48.780;9.146;2024-03-08T05:41:59;1.40;99.90
7512;DHT22;9999;48.780;9.146;2024-03-08T05:44:26;1.40;99.90
7512;DHT22;9999;48.780;9.146;2024-03-08T05:46:54;1.40;99.90
7512;DHT22;9999;48.780;9.146;2024-03-08T05:49:22;1.40;99.90
7512;DHT22;9999;48.780;9.146;2024-03-08T05:51:50;1.30;99.90
7512;DHT22;9999;48.780;9.146;2024-03-08T05:54:17;1.20;99.90
7512;DHT22;9999;48.780;9.146;2024-03-08T05:56:44;1.20;99.90
7512;DHT22;9999;48.780;9.146;2024-03-08T05:59:11;1.20;99.90
7512;DHT22;9999;48.780;9.146;2024-03-08T06:01:38;1.30;99.90
7512;DHT22;9999;48.780;9.146;2024-03-08T06:04:06;1.30;99.90
7512;DHT22;9999;48.780;9.146;2024-03-08T06:06:34;1.30;99.90
7512;DHT22;9999;48.780;9.146;2024-03-08T06:09:03;1.30;99.90
7512;DHT22;9999;48.780;9.146;2024-03-08T06:11:34;1.30;99.90
7512;DHT22;9999;48.780;9.146;2024-03-08T06:14:03;1.30;99.90
7512;DHT22;9999;48.780;9.146;2024-03-08T06:16:30;1.30;99.90
7512;DHT22;9999;48.780;9.146;2024-03-08T06:18:56;1.30;99.90
7512;DHT22;9999;48.780;9.146;2024-03-08T06:21:23;1.30;99.90
7512;DHT22;9999;48.780;9.146;2024-03-08T06:23:53;1.30;99.90
7512;DHT22;9999;48.780;9.146;2024-03-08T06:26:21;1.30;99.90
7512;DHT22;9999;48.780;9.146;2024-03-08T06:28:48;1.40;99.90
7512;DHT22;9999;48.780;9.146;2024-03-08T06:31:16;1.50;99.90
7512;DHT22;9999;48.780;9.146;2024-03-08T06:33:43;1.50;99.90
7512;DHT22;9999;48.780;9.146;2024-03-08T06:36:10;1.50;99.90
7512;DHT22;9999;48.780;9.146;2024-03-08T06:38:39;1.50;99.90
7512;DHT22;9999;48.780;9.146;2024-03-08T06:41:09;1.50;99.90
7512;DHT22;9999;48.780;9.146;2024-03-08T06:43:41;1.60;99.90
7512;DHT22;9999;48.780;9.146;2024-03-08T06:46:08;1.60;99.90
7512;DHT22;9999;48.780;9.146;2024-03-08T06:48:35;1.70;99.90
7512;DHT22;9999;48.780;9.146;2024-03-08T06:51:04;1.70;99.90
7512;DHT22;9999;48.780;9.146;2024-03-08T06:53:31;1.70;99.90
7512;DHT22;9999;48.780;9.146;2024-03-08T06:55:58;1.70;99.90
7512;DHT22;9999;48.780;9.146;2024-03-08T06:58:26;1.70;99.90
7512;DHT22;9999;48.780;9.146;2024-03-08T07:00:53;1.70;99.90
7512;DHT22;9999;48.780;9.146;2024-03-08T07:03:24;1.80;99.90
7512;DHT22;9999;48.780;9.146;2024-03-08T07:05:52;1.80;99.90
7512;DHT22;9999;48.780;9.146;2024-03-08T07:08:19;1.90;99.90
7512;DHT22;9999;48.780;9.146;2024-03-08T07:10:48;1.90;99.90
7512;DHT22;9999;48.780;9.146;2024-03-08T07:13:15;2.00;99.90
7512;DHT22;9999;48.780;9.146;2024-03-08T07:15:46;2.10;99.90
7512;DHT22;9999;48.780;9.146;2024-03-08T07:18:13;2.10;99.90
7512;DHT22;9999;48.780;9.146;2024-03-08T07:20:41;2.10;99.90
7512;DHT22;9999;48.780;9.146;2024-03-08T07:23:08;2.10;99.90
7512;DHT22;9999;48.780;9.146;2024-03-08T07:25:36;2.20;99.90
7512;DHT22;9999;48.780;9.146;2024-03-08T07:28:04;2.20;99.90
7512;DHT22;9999;48.780;9.146;2024-03-08T07:30:33;2.20;99.90
7512;DHT22;9999;48.780;9.146;2024-03-08T07:33:18;2.30;99.90
7512;DHT22;9999;48.780;9.146;2024-03-08T07:35:45;2.30;99.90
7512;DHT22;9999;48.780;9.146;2024-03-08T07:38:12;2.40;99.90
7512;DHT22;9999;48.780;9.146;2024-03-08T07:40:41;2.40;99.90
7512;DHT22;9999;48.780;9.146;2024-03-08T07:43:10;2.40;99.90
7512;DHT22;9999;48.780;9.146;2024-03-08T07:45:37;2.40;99.90
7512;DHT22;9999;48.780;9.146;2024-03-08T07:48:04;2.40;99.90
7512;DHT22;9999;48.780;9.146;2024-03-08T07:50:36;2.40;99.90
7512;DHT22;9999;48.780;9.146;2024-03-08T07:53:03;2.50;99.90
7512;DHT22;9999;48.780;9.146;2024-03-08T07:55:32;2.50;99.90
7512;DHT22;9999;48.780;9.146;2024-03-08T07:57:58;2.60;99.90
7512;DHT22;9999;48.780;9.146;2024-03-08T08:00:25;2.60;99.90
7512;DHT22;9999;48.780;9.146;2024-03-08T08:02:53;2.60;99.90
7512;DHT22;9999;48.780;9.146;2024-03-08T08:05:19;2.60;99.90
7512;DHT22;9999;48.780;9.146;2024-03-08T08:07:48;2.60;99.90
7512;DHT22;9999;48.780;9.146;2024-03-08T08:10:15;2.70;99.90
7512;DHT22;9999;48.780;9.146;2024-03-08T08:12:44;2.70;99.90
7512;DHT22;9999;48.780;9.146;2024-03-08T08:15:12;2.70;99.90
7512;DHT22;9999;48.780;9.146;2024-03-08T08:17:40;2.70;99.90
7512;DHT22;9999;48.780;9.146;2024-03-08T08:20:08;2.70;99.90
7512;DHT22;9999;48.780;9.146;2024-03-08T08:22:37;2.80;99.90
7512;DHT22;9999;48.780;9.146;2024-03-08T08:25:07;2.80;99.90
7512;DHT22;9999;48.780;9.146;2024-03-08T08:27:33;2.90;99.90
7512;DHT22;9999;48.780;9.146;2024-03-08T08:30:02;2.90;99.90
7512;DHT22;9999;48.780;9.146;2024-03-08T08:32:33;2.90;99.90
7512;DHT22;9999;48.780;9.146;2024-03-08T08:35:00;2.90;99.90
7512;DHT22;9999;48.780;9.146;2024-03-08T08:37:27;2.80;99.90
7512;DHT22;9999;48.780;9.146;2024-03-08T08:39:55;2.80;99.90
7512;DHT22;9999;48.780;9.146;2024-03-08T08:42:23;2.90;99.90
7512;DHT22;9999;48.780;9.146;2024-03-08T08:44:51;2.90;99.90
7512;DHT22;9999;48.780;9.146;2024-03-08T08:47:18;2.90;99.90
7512;DHT22;9999;48.780;9.146;2024-03-08T08:49:44;3.00;99.90
7512;DHT22;9999;48.780;9.146;2024-03-08T08:52:12;3.10;99.90
7512;DHT22;9999;48.780;9.146;2024-03-08T08:54:41;3.20;99.90
7512;DHT22;9999;48.780;9.146;2024-03-08T08:57:07;3.10;99.90
7512;DHT22;9999;48.780;9.146;2024-03-08T08:59:36;3.10;99.90
7512;DHT22;9999;48.780;9.146;2024-03-08T09:02:05;3.20;99.90
7512;DHT22;9999;48.780;9.146;2024-03-08T09:04:32;3.20;99.90
7512;DHT22;9999;48.780;9.146;2024-03-08T09:06:58;3.20;99.90
7512;DHT22;9999;48.780;9.146;2024-03-08T09:09:26;3.20;99.90
7512;DHT22;9999;48.780;9.146;2024-03-08T09:11:55;3.20;99.90
7512;DHT22;9999;48.780;9.146;2024-03-08T09:14:21;3.20;99.90
7512;DHT22;9999;48.780;9.146;2024-03-08T09:16:50;3.30;99.90
7512;DHT22;9999;48.780;9.146;2024-03-08T09:19:16;3.20;99.90
7512;DHT22;9999;48.780;9.146;2024-03-08T09:21:45;3.30;99.90
7512;DHT22;9999;48.780;9.146;2024-03-08T09:24:12;3.30;99.90
7512;DHT22;9999;48.780;9.146;2024-03-08T09:26:39;3.30;99.90
7512;DHT22;9999;48.780;9.146;2024-03-08T09:29:07;3.40;99.90
7512;DHT22;9999;48.780;9.146;2024-03-08T09:31:36;3.40;99.90
7512;DHT22;9999;48.780;9.146;2024-03-08T09:34:04;3.40;99.90
7512;DHT22;9999;48.780;9.146;2024-03-08T09:36:34;3.40;99.90
7512;DHT22;9999;48.780;9.146;2024-03-08T09:39:01;3.50;99.90
7512;DHT22;9999;48.780;9.146;2024-03-08T09:41:27;3.40;99.90
7512;DHT22;9999;48.780;9.146;2024-03-08T09:43:55;3.40;99.90
7512;DHT22;9999;48.780;9.146;2024-03-08T09:46:25;3.40;99.90
7512;DHT22;9999;48.780;9.146;2024-03-08T09:48:52;3.50;99.90
7512;DHT22;9999;48.780;9.146;2024-03-08T09:51:22;3.50;99.90
7512;DHT22;9999;48.780;9.146;2024-03-08T09:53:53;3.60;99.90
7512;DHT22;9999;48.780;9.146;2024-03-08T09:56:21;3.70;99.90
7512;DHT22;9999;48.780;9.146;2024-03-08T09:58:49;3.80;99.90
7512;DHT22;9999;48.780;9.146;2024-03-08T10:01:40;3.90;99.90
7512;DHT22;9999;48.780;9.146;2024-03-08T10:04:07;3.80;99.90
7512;DHT22;9999;48.780;9.146;2024-03-08T10:06:37;3.80;99.90
7512;DHT22;9999;48.780;9.146;2024-03-08T10:09:04;3.80;99.90
7512;DHT22;9999;48.780;9.146;2024-03-08T10:11:32;3.90;99.90
7512;DHT22;9999;48.780;9.146;2024-03-08T10:14:00;3.90;99.90
7512;DHT22;9999;48.780;9.146;2024-03-08T10:16:27;4.00;99.90
7512;DHT22;9999;48.780;9.146;2024-03-08T10:18:56;4.10;99.90
7512;DHT22;9999;48.780;9.146;2024-03-08T10:21:23;4.10;99.90
7512;DHT22;9999;48.780;9.146;2024-03-08T10:23:52;4.10;99.90
7512;DHT22;9999;48.780;9.146;2024-03-08T10:26:19;4.10;99.90
7512;DHT22;9999;48.780;9.146;2024-03-08T10:28:48;4.20;99.90
7512;DHT22;9999;48.780;9.146;2024-03-08T10:31:15;4.20;99.90
7512;DHT22;9999;48.780;9.146;2024-03-08T10:33:42;4.20;99.90
7512;DHT22;9999;48.780;9.146;2024-03-08T10:36:10;4.20;99.90
7512;DHT22;9999;48.780;9.146;2024-03-08T10:38:38;4.30;99.90
7512;DHT22;9999;48.780;9.146;2024-03-08T10:41:07;4.30;99.90
7512;DHT22;9999;48.780;9.146;2024-03-08T10:46:44;4.50;99.90
7512;DHT22;9999;48.780;9.146;2024-03-08T10:49:17;4.50;99.90
7512;DHT22;9999;48.780;9.146;2024-03-08T10:51:45;4.50;99.90
7512;DHT22;9999;48.780;9.146;2024-03-08T10:54:14;4.60;99.90
7512;DHT22;9999;48.780;9.146;2024-03-08T10:56:42;4.70;99.90
7512;DHT22;9999;48.780;9.146;2024-03-08T10:59:10;4.80;99.90
7512;DHT22;9999;48.780;9.146;2024-03-08T11:01:37;4.80;99.90
7512;DHT22;9999;48.780;9.146;2024-03-08T11:04:04;5.00;99.90
7512;DHT22;9999;48.780;9.146;2024-03-08T11:06:41;5.00;99.90
7512;DHT22;9999;48.780;9.146;2024-03-08T11:09:27;5.00;99.90
7512;DHT22;9999;48.780;9.146;2024-03-08T11:12:24;5.00;99.90
7512;DHT22;9999;48.780;9.146;2024-03-08T11:14:56;5.20;99.90
7512;DHT22;9999;48.780;9.146;2024-03-08T11:17:40;5.50;99.90
7512;DHT22;9999;48.780;9.146;2024-03-08T11:20:11;5.60;99.90
7512;DHT22;9999;48.780;9.146;2024-03-08T11:22:42;5.60;99.90
7512;DHT22;9999;48.780;9.146;2024-03-08T11:25:35;5.70;99.90
7512;DHT22;9999;48.780;9.146;2024-03-08T11:28:15;5.70;99.90
7512;DHT22;9999;48.780;9.146;2024-03-08T11:30:47;5.80;99.90
7512;DHT22;9999;48.780;9.146;2024-03-08T11:33:35;6.00;99.90
7512;DHT22;9999;48.780;9.146;2024-03-08T11:36:02;6.00;99.90
7512;DHT22;9999;48.780;9.146;2024-03-08T11:38:32;5.90;99.90
7512;DHT22;9999;48.780;9.146;2024-03-08T11:40:59;6.00;99.90
7512;DHT22;9999;48.780;9.146;2024-03-08T11:43:27;5.80;99.90
7512;DHT22;9999;48.780;9.146;2024-03-08T11:46:07;5.90;99.90
7512;DHT22;9999;48.780;9.146;2024-03-08T11:48:34;6.00;99.90
7512;DHT22;9999;48.780;9.146;2024-03-08T11:51:01;6.00;99.90
7512;DHT22;9999;48.780;9.146;2024-03-08T11:53:29;5.90;99.90
7512;DHT22;9999;48.780;9.146;2024-03-08T11:56:05;6.00;99.90
7512;DHT22;9999;48.780;9.146;2024-03-08T11:58:34;6.10;99.90
7512;DHT22;9999;48.780;9.146;2024-03-08T12:01:03;6.40;99.90
7512;DHT22;9999;48.780;9.146;2024-03-08T12:03:31;6.90;99.90
7512;DHT22;9999;48.780;9.146;2024-03-08T12:05:59;7.30;99.90
7512;DHT22;9999;48.780;9.146;2024-03-08T12:08:27;7.40;99.90
7512;DHT22;9999;48.780;9.146;2024-03-08T12:10:55;7.40;99.90
7512;DHT22;9999;48.780;9.146;2024-03-08T12:13:25;7.70;99.90
7512;DHT22;9999;48.780;9.146;2024-03-08T12:15:57;7.70;99.90
7512;DHT22;9999;48.780;9.146;2024-03-08T12:18:25;7.70;99.90
7512;DHT22;9999;48.780;9.146;2024-03-08T12:21:04;7.60;99.90
7512;DHT22;9999;48.780;9.146;2024-03-08T12:23:32;7.60;99.90
7512;DHT22;9999;48.780;9.146;2024-03-08T12:26:09;7.80;99.90
7512;DHT22;9999;48.780;9.146;2024-03-08T12:28:38;7.80;99.90
7512;DHT22;9999;48.780;9.146;2024-03-08T12:31:07;7.90;99.90
7512;DHT22;9999;48.780;9.146;2024-03-08T12:33:36;7.80;99.90
7512;DHT22;9999;48.780;9.146;2024-03-08T12:36:03;8.00;99.90
7512;DHT22;9999;48.780;9.146;2024-03-08T12:38:32;8.20;99.90
7512;DHT22;9999;48.780;9.146;2024-03-08T12:41:00;8.50;99.90
7512;DHT22;9999;48.780;9.146;2024-03-08T12:43:27;8.60;99.90
7512;DHT22;9999;48.780;9.146;2024-03-08T12:45:55;8.50;99.90
7512;DHT22;9999;48.780;9.146;2024-03-08T12:48:24;8.60;99.90
7512;DHT22;9999;48.780;9.146;2024-03-08T12:50:51;8.60;99.90
7512;DHT22;9999;48.780;9.146;2024-03-08T12:53:19;8.70;99.90
7512;DHT22;9999;48.780;9.146;2024-03-08T12:55:46;9.00;99.90
7512;DHT22;9999;48.780;9.146;2024-03-08T12:58:12;9.20;99.90
7512;DHT22;9999;48.780;9.146;2024-03-08T13:00:42;9.10;99.90
7512;DHT22;9999;48.780;9.146;2024-03-08T13:03:09;9.00;99.90
7512;DHT22;9999;48.780;9.146;2024-03-08T13:05:37;9.10;99.90
7512;DHT22;9999;48.780;9.146;2024-03-08T13:08:06;9.10;99.90
7512;DHT22;9999;48.780;9.146;2024-03-08T13:10:38;9.30;99.90
7512;DHT22;9999;48.780;9.146;2024-03-08T13:13:04;9.20;99.90
7512;DHT22;9999;48.780;9.146;2024-03-08T13:15:31;9.30;99.90
7512;DHT22;9999;48.780;9.146;2024-03-08T13:17:59;9.30;99.90
7512;DHT22;9999;48.780;9.146;2024-03-08T13:20:26;9.20;99.90
7512;DHT22;9999;48.780;9.146;2024-03-08T13:22:55;9.10;99.90
7512;DHT22;9999;48.780;9.146;2024-03-08T13:25:22;9.20;99.90
7512;DHT22;9999;48.780;9.146;2024-03-08T13:27:49;9.20;99.90
7512;DHT22;9999;48.780;9.146;2024-03-08T13:30:16;9.40;99.90
7512;DHT22;9999;48.780;9.146;2024-03-08T13:32:44;9.30;99.90
7512;DHT22;9999;48.780;9.146;2024-03-08T13:35:11;9.50;99.90
7512;DHT22;9999;48.780;9.146;2024-03-08T13:37:39;9.70;99.90
7512;DHT22;9999;48.780;9.146;2024-03-08T13:40:09;10.00;99.90
7512;DHT22;9999;48.780;9.146;2024-03-08T13:42:39;9.90;99.90
7512;DHT22;9999;48.780;9.146;2024-03-08T13:45:08;9.90;99.90
7512;DHT22;9999;48.780;9.146;2024-03-08T13:47:36;9.90;99.90
7512;DHT22;9999;48.780;9.146;2024-03-08T13:50:06;9.90;99.90
7512;DHT22;9999;48.780;9.146;2024-03-08T13:52:37;9.90;99.90
7512;DHT22;9999;48.780;9.146;2024-03-08T13:55:04;10.00;99.90
7512;DHT22;9999;48.780;9.146;2024-03-08T13:57:33;9.90;99.90
7512;DHT22;9999;48.780;9.146;2024-03-08T14:00:00;9.70;99.90
7512;DHT22;9999;48.780;9.146;2024-03-08T14:02:27;9.60;99.90
7512;DHT22;9999;48.780;9.146;2024-03-08T14:04:56;9.70;99.90
7512;DHT22;9999;48.780;9.146;2024-03-08T14:07:22;9.70;99.90
7512;DHT22;9999;48.780;9.146;2024-03-08T14:09:49;9.70;99.90
7512;DHT22;9999;48.780;9.146;2024-03-08T14:12:18;9.70;99.90
7512;DHT22;9999;48.780;9.146;2024-03-08T14:14:46;9.70;99.90
7512;DHT22;9999;48.780;9.146;2024-03-08T14:17:13;9.70;99.90
7512;DHT22;9999;48.780;9.146;2024-03-08T14:19:42;9.90;99.90
7512;DHT22;9999;48.780;9.146;2024-03-08T14:22:09;9.80;99.90
7512;DHT22;9999;48.780;9.146;2024-03-08T14:24:40;9.70;99.90
7512;DHT22;9999;48.780;9.146;2024-03-08T14:27:08;9.60;99.90
7512;DHT22;9999;48.780;9.146;2024-03-08T14:29:35;9.60;99.90
7512;DHT22;9999;48.780;9.146;2024-03-08T14:32:03;9.60;99.90
7512;DHT22;9999;48.780;9.146;2024-03-08T14:34:31;9.60;99.90
7512;DHT22;9999;48.780;9.146;2024-03-08T14:37:00;9.50;99.90
7512;DHT22;9999;48.780;9.146;2024-03-08T14:39:30;9.50;99.90
7512;DHT22;9999;48.780;9.146;2024-03-08T14:41:59;9.60;99.90
7512;DHT22;9999;48.780;9.146;2024-03-08T14:44:27;9.60;99.90
7512;DHT22;9999;48.780;9.146;2024-03-08T14:46:55;9.70;99.90
7512;DHT22;9999;48.780;9.146;2024-03-08T14:49:24;9.80;99.90
7512;DHT22;9999;48.780;9.146;2024-03-08T14:51:54;9.90;99.90
7512;DHT22;9999;48.780;9.146;2024-03-08T14:54:21;9.90;99.90
7512;DHT22;9999;48.780;9.146;2024-03-08T14:56:48;9.90;99.90
7512;DHT22;9999;48.780;9.146;2024-03-08T14:59:16;9.90;99.90
7512;DHT22;9999;48.780;9.146;2024-03-08T15:01:45;9.80;99.90
7512;DHT22;9999;48.780;9.146;2024-03-08T15:04:11;9.80;99.90
7512;DHT22;9999;48.780;9.146;2024-03-08T15:06:40;9.80;99.90
7512;DHT22;9999;48.780;9.146;2024-03-08T15:09:08;9.80;99.90
7512;DHT22;9999;48.780;9.146;2024-03-08T15:11:44;9.80;99.90
7512;DHT22;9999;48.780;9.146;2024-03-08T15:14:11;9.90;99.90
7512;DHT22;9999;48.780;9.146;2024-03-08T15:16:39;10.00;99.90
7512;DHT22;9999;48.780;9.146;2024-03-08T15:19:06;10.00;99.90
7512;DHT22;9999;48.780;9.146;2024-03-08T15:21:33;10.20;99.90
7512;DHT22;9999;48.780;9.146;2024-03-08T15:24:01;10.10;99.90
7512;DHT22;9999;48.780;9.146;2024-03-08T15:26:29;10.10;99.90
7512;DHT22;9999;48.780;9.146;2024-03-08T15:28:57;10.10;99.90
7512;DHT22;9999;48.780;9.146;2024-03-08T15:31:24;10.10;99.90
7512;DHT22;9999;48.780;9.146;2024-03-08T15:33:51;10.10;99.90
7512;DHT22;9999;48.780;9.146;2024-03-08T15:36:25;10.10;99.90
7512;DHT22;9999;48.780;9.146;2024-03-08T15:38:56;10.10;99.90
7512;DHT22;9999;48.780;9.146;2024-03-08T15:41:24;10.10;99.90
7512;DHT22;9999;48.780;9.146;2024-03-08T15:43:52;10.00;99.90
7512;DHT22;9999;48.780;9.146;2024-03-08T15:46:20;10.00;99.90
7512;DHT22;9999;48.780;9.146;2024-03-08T15:48:48;10.10;99.90
7512;DHT22;9999;48.780;9.146;2024-03-08T15:51:17;10.10;99.90
7512;DHT22;9999;48.780;9.146;2024-03-08T15:53:44;10.00;99.90
7512;DHT22;9999;48.780;9.146;2024-03-08T15:56:18;10.00;99.90
7512;DHT22;9999;48.780;9.146;2024-03-08T15:58:46;10.00;99.90
7512;DHT22;9999;48.780;9.146;2024-03-08T16:01:13;9.90;99.90
7512;DHT22;9999;48.780;9.146;2024-03-08T16:03:42;9.90;99.90
7512;DHT22;9999;48.780;9.146;2024-03-08T16:06:10;9.90;99.90
7512;DHT22;9999;48.780;9.146;2024-03-08T16:08:37;9.90;99.90
7512;DHT22;9999;48.780;9.146;2024-03-08T16:11:05;9.90;99.90
7512;DHT22;9999;48.780;9.146;2024-03-08T16:13:33;9.80;99.90
7512;DHT22;9999;48.780;9.146;2024-03-08T16:16:05;9.60;99.90
7512;DHT22;9999;48.780;9.146;2024-03-08T16:18:32;9.60;99.90
7512;DHT22;9999;48.780;9.146;2024-03-08T16:21:00;9.50;99.90
7512;DHT22;9999;48.780;9.146;2024-03-08T16:23:29;9.40;99.90
7512;DHT22;9999;48.780;9.146;2024-03-08T16:25:56;9.40;99.90
7512;DHT22;9999;48.780;9.146;2024-03-08T16:28:23;9.40;99.90